Data for 01/23/2008

Time Sea-Level Adjusted Pressure Absolute Pressure Temperature Relative Humidity Dew Point   
(mb) (inHg) (mb) (inHg) (C) (F) (%) (C) (F)
00:05 1022 30.18 851 25.13 -12.5 9.5 86 -14.4 6.1
00:10 1022 30.18 851 25.13 -12.5 9.5 85 -14.5 5.8
00:15 1022 30.18 851 25.13 -12.5 9.5 85 -14.5 6
00:20 1022 30.18 851 25.13 -12.3 9.8 86 -14.2 6.4
00:25 1022 30.18 851 25.13 -12.3 9.8 86 -14.3 6.3
00:30 1022 30.18 851 25.13 -12.5 9.5 84 -14.6 5.7
00:35 1022 30.18 851 25.13 -12.9 8.9 85 -14.9 5.2
00:40 1022 30.18 851 25.13 -13.2 8.3 85 -15.2 4.6
00:45 1022 30.18 851 25.13 -13.5 7.8 85 -15.5 4.2
00:50 1022 30.18 851 25.13 -13.7 7.3 86 -15.6 4
00:55 1022 30.18 851 25.13 -14 6.8 88 -15.6 4
01:00 1022 30.18 851 25.13 -13.8 7.2 87 -15.5 4.1
01:05 1022 30.18 852 25.16 -13.7 7.4 86 -15.5 4.2
01:10 1022 30.18 851 25.13 -13.7 7.3 87 -15.5 4.1
01:15 1022 30.18 851 25.13 -13.7 7.3 87 -15.5 4.2
01:20 1022 30.18 851 25.13 -13.7 7.4 86 -15.5 4.1
01:25 1022 30.18 851 25.13 -13.6 7.5 86 -15.4 4.2
01:30 1022 30.18 851 25.13 -13.6 7.6 86 -15.4 4.3
01:35 1022 30.18 851 25.13 -13.5 7.6 86 -15.4 4.2
01:40 1022 30.18 851 25.13 -13.6 7.5 86 -15.5 4.1
01:45 1022 30.18 852 25.16 -13.7 7.4 86 -15.5 4.1
01:50 1022 30.18 852 25.16 -13.7 7.3 86 -15.6 4
01:55 1022 30.18 852 25.16 -13.7 7.4 87 -15.5 4.2
02:00 1022 30.18 852 25.16 -13.7 7.3 86 -15.5 4
02:05 1022 30.18 852 25.16 -14.1 6.7 88 -15.7 3.7
02:10 1023 30.21 852 25.16 -14.3 6.2 89 -15.7 3.7
02:15 1023 30.21 852 25.16 -14.3 6.2 89 -15.8 3.6
02:20 1023 30.21 852 25.16 -14.4 6.1 89 -15.8 3.6
02:25 1022 30.18 852 25.16 -14.3 6.2 89 -15.7 3.7
02:30 1022 30.18 852 25.16 -14.2 6.4 89 -15.7 3.7
02:35 1022 30.18 851 25.13 -14.2 6.4 89 -15.7 3.8
02:40 1022 30.18 851 25.13 -14.3 6.2 89 -15.7 3.7
02:45 1022 30.18 852 25.16 -14.3 6.3 89 -15.7 3.8
02:50 1022 30.18 852 25.16 -14.1 6.7 89 -15.5 4
02:55 1022 30.18 852 25.16 -13.8 7.1 89 -15.3 4.4
03:00 1022 30.18 852 25.16 -13.7 7.3 88 -15.3 4.5
03:05 1022 30.18 852 25.16 -13.6 7.4 88 -15.3 4.5
03:10 1022 30.18 852 25.16 -13.6 7.5 88 -15.2 4.6
03:15 1022 30.18 852 25.16 -13.6 7.6 88 -15.1 4.8
03:20 1022 30.18 852 25.16 -13.5 7.6 88 -15.2 4.7
03:25 1022 30.18 852 25.16 -13.6 7.6 88 -15.1 4.8
03:30 1022 30.18 852 25.16 -13.5 7.7 88 -15.1 4.8
03:35 1022 30.18 852 25.16 -13.5 7.8 88 -15 5
03:40 1022 30.18 852 25.16 -13.4 7.9 87 -15.1 4.9
03:45 1022 30.18 852 25.16 -13.5 7.7 88 -15.1 4.8
03:50 1022 30.18 851 25.13 -13.5 7.7 88 -15.1 4.8
03:55 1022 30.18 851 25.13 -13.6 7.5 88 -15.2 4.6
04:00 1022 30.18 851 25.13 -13.8 7.3 88 -15.3 4.4
04:05 1022 30.18 851 25.13 -13.8 7.2 89 -15.3 4.5
04:10 1022 30.18 851 25.13 -13.7 7.3 89 -15.2 4.7
04:15 1022 30.18 851 25.13 -13.5 7.7 88 -15.1 4.8
04:20 1022 30.18 851 25.13 -13.3 8 88 -14.9 5.3
04:25 1022 30.18 851 25.13 -13.2 8.2 88 -14.8 5.3
04:30 1022 30.18 851 25.13 -13.2 8.2 87 -15 5
04:35 1022 30.18 851 25.13 -13.4 7.8 88 -15.1 4.9
04:40 1022 30.18 851 25.13 -13.5 7.6 89 -15 5
04:45 1022 30.18 851 25.13 -13.5 7.8 88 -15.1 4.8
04:50 1022 30.18 851 25.13 -13.5 7.7 87 -15.2 4.7
04:55 1022 30.18 851 25.13 -13.6 7.6 88 -15.1 4.8
05:00 1022 30.18 851 25.13 -13.6 7.6 87 -15.2 4.6
05:05 1022 30.18 851 25.13 -13.7 7.4 88 -15.3 4.4
05:10 1022 30.18 851 25.13 -13.8 7.1 86 -15.6 3.8
05:15 1022 30.18 851 25.13 -14.1 6.7 85 -16 3.2
05:20 1022 30.18 851 25.13 -14.4 6 86 -16.2 2.8
05:25 1022 30.18 851 25.13 -14.8 5.5 88 -16.4 2.5
05:30 1022 30.18 851 25.13 -14.9 5.1 91 -16.1 3
05:35 1022 30.18 851 25.13 -14.9 5.1 89 -16.3 2.6
05:40 1022 30.18 851 25.13 -15 5 92 -16.1 3.1
05:45 1022 30.18 851 25.13 -14.8 5.3 91 -15.9 3.3
05:50 1022 30.18 851 25.13 -14.7 5.6 87 -16.3 2.6
05:55 1022 30.18 851 25.13 -14.9 5.2 87 -16.6 2
06:00 1022 30.18 851 25.13 -15.1 4.7 89 -16.6 2.1
06:05 1022 30.18 851 25.13 -15.3 4.5 86 -17.1 1.2
06:10 1022 30.18 851 25.13 -15.6 3.9 89 -17 1.3
06:15 1022 30.18 851 25.13 -15.7 3.8 92 -16.7 1.9
06:20 1022 30.18 851 25.13 -15.5 4.2 91 -16.6 2.2
06:25 1022 30.18 851 25.13 -15.3 4.5 93 -16.2 2.8
06:30 1022 30.18 851 25.13 -15 5 91 -16.1 2.9
06:35 1022 30.18 851 25.13 -14.8 5.4 89 -16.2 2.8
06:40 1022 30.18 851 25.13 -15 5 89 -16.4 2.4
06:45 1022 30.18 851 25.13 -15.3 4.5 88 -16.9 1.6
06:50 1022 30.18 851 25.13 -15.5 4.2 88 -17 1.4
06:55 1022 30.18 851 25.13 -15.5 4 88 -17.1 1.2
07:00 1022 30.18 851 25.13 -15.7 3.7 87 -17.5 0.5
07:05 1022 30.18 851 25.13 -15.9 3.4 90 -17.2 1
07:10 1022 30.18 851 25.13 -15.9 3.4 91 -17.1 1.2
07:15 1022 30.18 851 25.13 -15.8 3.5 91 -16.9 1.5
07:20 1022 30.18 851 25.13 -15.7 3.7 91 -16.9 1.5
07:25 1022 30.18 851 25.13 -15.6 3.8 90 -16.9 1.6
07:30 1022 30.18 851 25.13 -15.6 3.9 91 -16.8 1.8
07:35 1022 30.18 851 25.13 -15.5 4 88 -17.1 1.2
07:40 1022 30.18 851 25.13 -15.7 3.7 88 -17.3 0.8
07:45 1022 30.18 851 25.13 -16 3.2 88 -17.5 0.5
07:50 1022 30.18 851 25.13 -16.1 3.1 89 -17.5 0.5
07:55 1022 30.18 851 25.13 -16.1 3.1 88 -17.6 0.3
08:00 1022 30.18 851 25.13 -16.2 2.9 86 -18 -0.4
08:05 1022 30.18 851 25.13 -16.6 2.1 88 -18.2 -0.7
08:10 1022 30.18 851 25.13 -16.9 1.6 90 -18.2 -0.8
08:15 1022 30.18 851 25.13 -16.7 1.9 92 -17.7 0.1
08:20 1022 30.18 851 25.13 -16.5 2.4 91 -17.6 0.3
08:25 1022 30.18 851 25.13 -16.4 2.5 91 -17.6 0.3
08:30 1022 30.18 851 25.13 -16.5 2.3 88 -18 -0.5
08:35 1022 30.18 851 25.13 -16.6 2.2 90 -17.9 -0.1
08:40 1022 30.18 851 25.13 -16.3 2.7 89 -17.6 0.2
08:45 1022 30.18 851 25.13 -16.1 3 89 -17.6 0.4
08:50 1022 30.18 851 25.13 -16.1 3.1 88 -17.7 0.2
08:55 1022 30.18 851 25.13 -16 3.2 88 -17.5 0.5
09:00 1022 30.18 851 25.13 -15.7 3.7 89 -17.2 1.1
09:05 1022 30.18 851 25.13 -15.2 4.6 87 -16.9 1.6
09:10 1022 30.18 851 25.13 -14.7 5.5 86 -16.6 2
09:15 1022 30.18 851 25.13 -14.4 6 83 -16.8 1.8
09:20 1022 30.18 851 25.13 -14.5 5.9 83 -16.8 1.8
09:25 1022 30.18 851 25.13 -14.4 6.1 82 -16.8 1.8
09:30 1022 30.18 851 25.13 -14.3 6.3 82 -16.7 2
09:35 1022 30.18 851 25.13 -14 6.8 82 -16.5 2.3
09:40 1022 30.18 851 25.13 -13.5 7.8 81 -16 3.2
09:45 1022 30.18 851 25.13 -12.7 9.2 79 -15.6 4
09:50 1022 30.18 851 25.13 -12.2 10.1 77 -15.4 4.3
09:55 1022 30.18 851 25.13 -12 10.5 77 -15.2 4.6
10:00 1022 30.18 851 25.13 -11.7 10.9 75 -15.2 4.6
10:05 1022 30.18 851 25.13 -11.5 11.3 76 -14.9 5.2
10:10 1022 30.18 851 25.13 -11.3 11.6 74 -15.1 4.8
10:15 1022 30.18 851 25.13 -11.2 11.9 74 -14.9 5.2
10:20 1022 30.18 851 25.13 -10.7 12.8 73 -14.6 5.7
10:25 1022 30.18 851 25.13 -10.1 13.9 70 -14.5 5.9
10:30 1022 30.18 851 25.13 -9.5 14.8 69 -14.3 6.3
10:35 1022 30.18 851 25.13 -9 15.8 66 -14.3 6.3
10:40 1022 30.18 851 25.13 -9.1 15.7 68 -14 6.8
10:45 1022 30.18 851 25.13 -9.1 15.7 69 -13.8 7.1
10:50 1022 30.18 851 25.13 -9 15.7 67 -14 6.7
10:55 1022 30.18 851 25.13 -8.6 16.5 64 -14.2 6.4
11:00 1022 30.18 851 25.13 -9.7 14.5 70 -14.2 6.5
11:05 1021 30.15 851 25.13 -9.9 14.2 68 -14.7 5.6
11:10 1021 30.15 851 25.13 -9.1 15.7 66 -14.3 6.3
11:15 1021 30.15 851 25.13 -8.8 16.1 66 -14.1 6.6
11:20 1021 30.15 850 25.1 -8.6 16.5 65 -14.1 6.6
11:25 1021 30.15 850 25.1 -8.1 17.5 63 -13.8 7.1
11:30 1021 30.15 850 25.1 -7.6 18.3 59 -14.2 6.4
11:35 1021 30.15 850 25.1 -7.9 17.9 61 -14.1 6.7
11:40 1021 30.15 850 25.1 -8.1 17.4 63 -13.9 6.9
11:45 1021 30.15 850 25.1 -7.5 18.5 59 -14.3 6.3
11:50 1021 30.15 850 25.1 -7.4 18.7 60 -14 6.8
11:55 1021 30.15 850 25.1 -7.8 18 61 -14.1 6.5
12:00 1020 30.12 850 25.1 -8.6 16.6 65 -13.9 6.9
12:05 1020 30.12 850 25.1 -9 15.9 68 -13.8 7.1
12:10 1020 30.12 849 25.07 -8.9 16 65 -14.3 6.3
12:15 1020 30.12 849 25.07 -8.1 17.4 62 -14.1 6.6
12:20 1020 30.12 849 25.07 -7.9 17.7 64 -13.7 7.3
12:25 1020 30.12 849 25.07 -8.4 16.8 65 -13.8 7.2
12:30 1020 30.12 849 25.07 -8 17.7 65 -13.4 7.9
12:35 1020 30.12 849 25.07 -7.3 18.9 61 -13.6 7.6
12:40 1020 30.12 849 25.07 -6.6 20.2 59 -13.4 7.9
12:45 1019 30.09 849 25.07 -6 21.2 56 -13.5 7.6
12:50 1019 30.09 849 25.07 -6.2 20.8 56 -13.6 7.6
12:55 1019 30.09 849 25.07 -5.9 21.4 57 -13.1 8.4
13:00 1019 30.09 849 25.07 -6.6 20.1 61 -13 8.6
13:05 1019 30.09 848 25.04 -6.6 20 55 -14.2 6.5
13:10 1019 30.09 848 25.04 -6.9 19.6 58 -13.8 7.1
13:15 1019 30.09 848 25.04 -6.9 19.5 58 -13.9 7
13:20 1019 30.09 848 25.04 -7.9 17.8 62 -13.9 7.1
13:25 1019 30.09 848 25.04 -7.3 18.8 59 -14.1 6.7
13:30 1019 30.09 848 25.04 -6.5 20.4 56 -13.8 7.2
13:35 1019 30.09 848 25.04 -6.2 20.8 55 -13.8 7.1
13:40 1019 30.09 848 25.04 -6.8 19.8 59 -13.5 7.7
13:45 1019 30.09 848 25.04 -7.5 18.5 61 -13.8 7.1
13:50 1019 30.09 848 25.04 -7.3 19 60 -13.8 7.2
13:55 1018 30.06 848 25.04 -6.6 20.1 58 -13.6 7.5
14:00 1018 30.06 848 25.04 -6.8 19.7 59 -13.6 7.5
14:05 1018 30.06 847 25.01 -7.5 18.6 61 -13.7 7.3
14:10 1018 30.06 847 25.01 -7.3 18.9 61 -13.7 7.4
14:15 1018 30.06 847 25.01 -6.7 20 59 -13.3 8
14:20 1018 30.06 847 25.01 -6.9 19.6 61 -13.2 8.3
14:25 1018 30.06 847 25.01 -7.5 18.5 61 -13.8 7.2
14:30 1018 30.06 847 25.01 -7 19.4 63 -12.9 8.8
14:35 1018 30.06 847 25.01 -6.9 19.7 57 -14 6.8
14:40 1018 30.06 847 25.01 -6.3 20.7 60 -12.9 8.8
14:45 1018 30.06 847 25.01 -6.6 20.1 60 -13.1 8.4
14:50 1018 30.06 847 25.01 -7.1 19.1 61 -13.5 7.7
14:55 1018 30.06 847 25.01 -6.7 19.9 58 -13.7 7.3
15:00 1018 30.06 847 25.01 -6.9 19.6 60 -13.5 7.7
15:05 1018 30.06 847 25.01 -7.3 18.9 63 -13.2 8.2
15:10 1018 30.06 847 25.01 -7.4 18.7 62 -13.5 7.8
15:15 1018 30.06 847 25.01 -7.3 18.9 59 -13.9 6.9
15:20 1018 30.06 847 25.01 -6.7 19.9 58 -13.7 7.4
15:25 1018 30.06 847 25.01 -7.4 18.7 62 -13.5 7.7
15:30 1018 30.06 847 25.01 -7.8 17.9 65 -13.2 8.2
15:35 1018 30.06 847 25.01 -7.8 18 64 -13.5 7.6
15:40 1018 30.06 847 25.01 -7.9 17.8 64 -13.5 7.7
15:45 1018 30.06 847 25.01 -7.2 19 60 -13.7 7.3
15:50 1018 30.06 847 25.01 -6.8 19.7 61 -13.2 8.2
15:55 1018 30.06 847 25.01 -7 19.4 59 -13.7 7.3
16:00 1018 30.06 847 25.01 -6.9 19.5 59 -13.6 7.4
16:05 1018 30.06 847 25.01 -7.3 18.8 59 -14 6.8
16:10 1018 30.06 847 25.01 -7.9 17.7 62 -13.9 6.9
16:15 1018 30.06 847 25.01 -8.2 17.2 63 -14 6.7
16:20 1017 30.03 847 25.01 -8.5 16.7 64 -14.2 6.4
16:25 1017 30.03 847 25.01 -8.7 16.3 66 -14.1 6.7
16:30 1017 30.03 847 25.01 -8.7 16.4 65 -14.1 6.6
16:35 1017 30.03 847 25.01 -7.9 17.7 62 -14 6.7
16:40 1017 30.03 847 25.01 -7.7 18.2 63 -13.5 7.6
16:45 1017 30.03 846 24.98 -7.9 17.7 64 -13.6 7.6
16:50 1017 30.03 846 24.98 -8.2 17.3 65 -13.7 7.3
16:55 1017 30.03 846 24.98 -8.5 16.8 67 -13.6 7.6
17:00 1017 30.03 846 24.98 -8.5 16.7 66 -13.9 7.1
17:05 1017 30.03 846 24.98 -8.9 16.1 68 -13.8 7.1
17:10 1017 30.03 846 24.98 -9.3 15.3 71 -13.5 7.6
17:15 1017 30.03 846 24.98 -10 14 76 -13.5 7.7
17:20 1017 30.03 846 24.98 -10.3 13.4 76 -13.8 7.1
17:25 1017 30.03 846 24.98 -10.8 12.5 78 -14 6.8
17:30 1017 30.03 846 24.98 -11.2 11.8 79 -14.2 6.4
17:35 1017 30.03 846 24.98 -11.4 11.5 80 -14.2 6.4
17:40 1017 30.03 846 24.98 -11.3 11.6 80 -14.1 6.6
17:45 1017 30.03 846 24.98 -11.3 11.6 80 -14.1 6.7
17:50 1017 30.03 846 24.98 -11.4 11.5 80 -14.2 6.4
17:55 1017 30.03 846 24.98 -11.4 11.4 80 -14.2 6.4
18:00 1017 30.03 846 24.98 -11.6 11.1 80 -14.4 6.2
18:05 1017 30.03 846 24.98 -11.9 10.5 82 -14.5 6
18:10 1017 30.03 846 24.98 -12.2 10.1 81 -14.9 5.2
18:15 1017 30.03 846 24.98 -12.6 9.2 85 -14.7 5.5
18:20 1017 30.03 846 24.98 -12.3 9.9 82 -14.7 5.5
18:25 1017 30.03 846 24.98 -11.8 10.7 81 -14.4 6
18:30 1017 30.03 846 24.98 -11.6 11.2 80 -14.4 6.1
18:35 1017 30.03 846 24.98 -11.8 10.8 82 -14.2 6.4
18:40 1017 30.03 846 24.98 -12.1 10.2 84 -14.4 6.2
18:45 1017 30.03 846 24.98 -12.3 9.9 86 -14.2 6.4
18:50 1017 30.03 846 24.98 -12.2 10.1 85 -14.2 6.5
18:55 1017 30.03 846 24.98 -11.8 10.7 84 -14 6.8
19:00 1017 30.03 846 24.98 -12 10.4 84 -14.1 6.6
19:05 1017 30.03 846 24.98 -12.1 10.3 84 -14.3 6.3
19:10 1017 30.03 846 24.98 -12.2 10.1 85 -14.3 6.3
19:15 1017 30.03 846 24.98 -12.2 10.1 84 -14.3 6.2
19:20 1017 30.03 846 24.98 -12.4 9.7 85 -14.4 6.1
19:25 1017 30.03 846 24.98 -12.5 9.5 86 -14.3 6.2
19:30 1017 30.03 846 24.98 -12.4 9.7 86 -14.2 6.4
19:35 1017 30.03 846 24.98 -12.2 10 86 -14.1 6.7
19:40 1017 30.03 846 24.98 -12 10.3 87 -13.7 7.3
19:45 1017 30.03 846 24.98 -11.8 10.9 85 -13.8 7.2
19:50 1017 30.03 846 24.98 -12.1 10.2 87 -13.9 7
19:55 1017 30.03 846 24.98 -12.1 10.2 86 -14 6.7
20:00 1017 30.03 846 24.98 -11.8 10.7 84 -14.1 6.6
20:05 1017 30.03 846 24.98 -11.9 10.5 87 -13.7 7.4
20:10 1017 30.03 846 24.98 -11.9 10.6 87 -13.7 7.4
20:15 1017 30.03 846 24.98 -11.9 10.6 86 -13.7 7.3
20:20 1016 30 846 24.98 -11.8 10.8 85 -13.8 7.1
20:25 1016 30 846 24.98 -11.8 10.8 84 -14 6.8
20:30 1016 30 846 24.98 -12.1 10.2 83 -14.4 6.1
20:35 1016 30 846 24.98 -12.8 9.1 87 -14.5 6
20:40 1016 30 846 24.98 -12.9 8.7 87 -14.7 5.5
20:45 1016 30 846 24.98 -13.2 8.3 88 -14.8 5.3
20:50 1016 30 846 24.98 -12.9 8.8 90 -14.2 6.4
20:55 1016 30 846 24.98 -12.2 10 85 -14.3 6.3
21:00 1016 30 846 24.98 -11.9 10.7 87 -13.6 7.4
21:05 1016 30 846 24.98 -11.3 11.6 78 -14.4 6.1
21:10 1016 30 845 24.95 -11.8 10.8 83 -14.1 6.6
21:15 1016 30 845 24.95 -11.5 11.3 81 -14.1 6.6
21:20 1016 30 845 24.95 -11.9 10.6 83 -14.1 6.5
21:25 1016 30 845 24.95 -12.7 9.2 85 -14.8 5.4
21:30 1016 30 845 24.95 -13.1 8.5 87 -14.8 5.4
21:35 1016 30 845 24.95 -13.3 8 89 -14.8 5.4
21:40 1016 30 845 24.95 -12.9 8.8 90 -14.2 6.4
21:45 1016 30 845 24.95 -11.9 10.6 85 -13.9 7
21:50 1016 30 845 24.95 -12.4 9.8 85 -14.4 6.1
21:55 1016 30 845 24.95 -12.7 9.2 86 -14.6 5.7
22:00 1016 30 845 24.95 -12.7 9.1 86 -14.6 5.8
22:05 1016 30 845 24.95 -12.7 9.2 85 -14.7 5.6
22:10 1016 30 845 24.95 -12.7 9.1 88 -14.4 6.1
22:15 1016 30 845 24.95 -12.5 9.5 87 -14.3 6.3
22:20 1016 30 845 24.95 -12.4 9.7 85 -14.4 6.1
22:25 1016 30 845 24.95 -12.5 9.6 88 -14.1 6.6
22:30 1016 30 845 24.95 -12.2 10 87 -14 6.8
22:35 1016 30 845 24.95 -12 10.3 85 -14 6.8
22:40 1016 30 845 24.95 -12.1 10.2 86 -14 6.9
22:45 1016 30 845 24.95 -12 10.4 86 -13.8 7.1
22:50 1016 30 845 24.95 -11.9 10.6 86 -13.8 7.2
22:55 1016 30 845 24.95 -12 10.4 88 -13.7 7.4
23:00 1016 30 845 24.95 -11.7 10.9 87 -13.6 7.6
23:05 1016 30 845 24.95 -11.5 11.4 85 -13.6 7.6
23:10 1016 30 845 24.95 -11.7 11 87 -13.5 7.8
23:15 1016 30 845 24.95 -11.5 11.2 86 -13.5 7.8
23:20 1015 29.97 845 24.95 -11.5 11.3 86 -13.4 7.9
23:25 1015 29.97 845 24.95 -11.5 11.3 86 -13.5 7.7
23:30 1015 29.97 844 24.92 -11.6 11.1 86 -13.6 7.6
23:35 1015 29.97 844 24.92 -11.7 10.9 86 -13.6 7.5
23:40 1015 29.97 844 24.92 -11.9 10.5 85 -14 6.8
23:45 1015 29.97 844 24.92 -12.3 9.8 86 -14.2 6.4
23:50 1015 29.97 844 24.92 -12.5 9.4 88 -14.2 6.5
23:55 1015 29.97 844 24.92 -12.5 9.6 89 -14 6.8
24:00 1015 29.97 844 24.92 -12.2 10 88 -13.9 7